sensor_id;sensor_type;location;lat;lon;timestamp;temperature;humidity
41435;DHT22;27177;22.262;114.192;2023-09-19T00:30:08;28.00;99.90
41435;DHT22;27177;22.262;114.192;2023-09-19T00:45:17;28.40;99.90
41435;DHT22;27177;22.262;114.192;2023-09-19T00:47:48;28.50;99.90
41435;DHT22;27177;22.262;114.192;2023-09-19T00:50:19;28.60;99.90
41435;DHT22;27177;22.262;114.192;2023-09-19T00:52:50;28.70;99.90
41435;DHT22;27177;22.262;114.192;2023-09-19T00:55:36;28.90;99.90
41435;DHT22;27177;22.262;114.192;2023-09-19T00:58:04;28.90;99.90
41435;DHT22;27177;22.262;114.192;2023-09-19T01:00:55;29.00;99.90
41435;DHT22;27177;22.262;114.192;2023-09-19T01:05:59;29.10;99.90
41435;DHT22;27177;22.262;114.192;2023-09-19T01:08:29;29.00;99.90
41435;DHT22;27177;22.262;114.192;2023-09-19T01:11:03;29.00;99.90
41435;DHT22;27177;22.262;114.192;2023-09-19T01:13:57;29.10;99.90
41435;DHT22;27177;22.262;114.192;2023-09-19T01:22:29;29.10;99.90
41435;DHT22;27177;22.262;114.192;2023-09-19T01:29:01;29.00;99.90
41435;DHT22;27177;22.262;114.192;2023-09-19T01:31:38;29.00;99.90
41435;DHT22;27177;22.262;114.192;2023-09-19T01:34:53;29.00;99.90
41435;DHT22;27177;22.262;114.192;2023-09-19T01:37:22;29.00;99.90
41435;DHT22;27177;22.262;114.192;2023-09-19T01:40:31;29.00;99.90
41435;DHT22;27177;22.262;114.192;2023-09-19T01:43:31;29.00;99.90
41435;DHT22;27177;22.262;114.192;2023-09-19T01:46:37;29.00;99.90
41435;DHT22;27177;22.262;114.192;2023-09-19T01:49:42;29.20;99.90
41435;DHT22;27177;22.262;114.192;2023-09-19T01:52:46;29.30;99.90
41435;DHT22;27177;22.262;114.192;2023-09-19T02:25:37;29.60;99.90
41435;DHT22;27177;22.262;114.192;2023-09-19T02:30:41;29.80;99.90
41435;DHT22;27177;22.262;114.192;2023-09-19T02:33:08;29.90;99.90
41435;DHT22;27177;22.262;114.192;2023-09-19T02:38:10;30.00;99.90
41435;DHT22;27177;22.262;114.192;2023-09-19T02:40:37;29.90;99.90
41435;DHT22;27177;22.262;114.192;2023-09-19T02:48:49;29.50;99.90
41435;DHT22;27177;22.262;114.192;2023-09-19T02:51:16;29.30;99.90
41435;DHT22;27177;22.262;114.192;2023-09-19T02:58:54;28.90;99.90
41435;DHT22;27177;22.262;114.192;2023-09-19T03:01:21;28.80;99.90
41435;DHT22;27177;22.262;114.192;2023-09-19T03:03:48;28.70;99.90
41435;DHT22;27177;22.262;114.192;2023-09-19T03:06:15;28.70;99.90
41435;DHT22;27177;22.262;114.192;2023-09-19T03:08:43;28.70;99.90
41435;DHT22;27177;22.262;114.192;2023-09-19T03:11:11;28.70;99.90
41435;DHT22;27177;22.262;114.192;2023-09-19T03:13:39;28.80;99.90
41435;DHT22;27177;22.262;114.192;2023-09-19T03:18:41;28.90;99.90
41435;DHT22;27177;22.262;114.192;2023-09-19T03:21:08;28.90;99.90
41435;DHT22;27177;22.262;114.192;2023-09-19T03:23:34;29.00;99.90
41435;DHT22;27177;22.262;114.192;2023-09-19T03:26:01;29.10;99.90
41435;DHT22;27177;22.262;114.192;2023-09-19T03:28:28;29.10;99.90
41435;DHT22;27177;22.262;114.192;2023-09-19T03:30:59;29.10;99.90
41435;DHT22;27177;22.262;114.192;2023-09-19T03:33:26;29.20;99.90
41435;DHT22;27177;22.262;114.192;2023-09-19T03:41:04;29.30;99.90
41435;DHT22;27177;22.262;114.192;2023-09-19T03:49:10;29.40;99.90
41435;DHT22;27177;22.262;114.192;2023-09-19T03:51:37;29.40;99.90
41435;DHT22;27177;22.262;114.192;2023-09-19T03:56:44;29.40;99.90
41435;DHT22;27177;22.262;114.192;2023-09-19T03:59:12;29.40;99.90
41435;DHT22;27177;22.262;114.192;2023-09-19T04:12:05;29.80;99.90
41435;DHT22;27177;22.262;114.192;2023-09-19T04:14:31;29.90;99.90
41435;DHT22;27177;22.262;114.192;2023-09-19T04:16:58;30.00;99.90
41435;DHT22;27177;22.262;114.192;2023-09-19T04:22:00;30.20;99.90
41435;DHT22;27177;22.262;114.192;2023-09-19T04:24:27;30.20;99.90
41435;DHT22;27177;22.262;114.192;2023-09-19T04:26:54;30.20;99.90
41435;DHT22;27177;22.262;114.192;2023-09-19T04:29:21;30.20;99.90
41435;DHT22;27177;22.262;114.192;2023-09-19T04:31:48;30.10;99.90
41435;DHT22;27177;22.262;114.192;2023-09-19T04:34:14;30.10;99.90
41435;DHT22;27177;22.262;114.192;2023-09-19T04:36:44;30.00;99.90
41435;DHT22;27177;22.262;114.192;2023-09-19T05:18:19;31.40;99.90
41435;DHT22;27177;22.262;114.192;2023-09-19T05:28:36;31.50;99.90
41435;DHT22;27177;22.262;114.192;2023-09-19T05:33:39;31.70;99.90
41435;DHT22;27177;22.262;114.192;2023-09-19T05:36:06;31.90;99.90
41435;DHT22;27177;22.262;114.192;2023-09-19T05:38:36;31.90;99.90
41435;DHT22;27177;22.262;114.192;2023-09-19T05:41:04;32.00;99.90
41435;DHT22;27177;22.262;114.192;2023-09-19T05:51:16;32.30;99.90
41435;DHT22;27177;22.262;114.192;2023-09-19T05:53:44;32.30;99.90
41435;DHT22;27177;22.262;114.192;2023-09-19T05:56:10;32.30;99.90
41435;DHT22;27177;22.262;114.192;2023-09-19T06:01:24;32.10;99.90
41435;DHT22;27177;22.262;114.192;2023-09-19T06:03:51;32.10;99.90
41435;DHT22;27177;22.262;114.192;2023-09-19T06:08:54;32.10;99.90
41435;DHT22;27177;22.262;114.192;2023-09-19T06:13:59;32.20;99.90
41435;DHT22;27177;22.262;114.192;2023-09-19T06:16:31;32.20;99.90
41435;DHT22;27177;22.262;114.192;2023-09-19T06:19:00;32.30;99.90
41435;DHT22;27177;22.262;114.192;2023-09-19T06:21:30;32.30;99.90
41435;DHT22;27177;22.262;114.192;2023-09-19T06:23:57;32.30;99.90
41435;DHT22;27177;22.262;114.192;2023-09-19T06:29:18;32.10;99.90
41435;DHT22;27177;22.262;114.192;2023-09-19T06:31:48;32.10;99.90
41435;DHT22;27177;22.262;114.192;2023-09-19T06:34:15;32.10;99.90
41435;DHT22;27177;22.262;114.192;2023-09-19T06:36:42;32.10;99.90
41435;DHT22;27177;22.262;114.192;2023-09-19T06:39:09;32.00;99.90
41435;DHT22;27177;22.262;114.192;2023-09-19T06:41:37;32.00;99.90
41435;DHT22;27177;22.262;114.192;2023-09-19T06:44:05;31.90;99.90
41435;DHT22;27177;22.262;114.192;2023-09-19T06:46:32;31.90;99.90
41435;DHT22;27177;22.262;114.192;2023-09-19T06:49:01;31.90;99.90
41435;DHT22;27177;22.262;114.192;2023-09-19T06:51:34;31.80;99.90
41435;DHT22;27177;22.262;114.192;2023-09-19T06:54:02;31.70;99.90
41435;DHT22;27177;22.262;114.192;2023-09-19T06:56:31;31.80;99.90
41435;DHT22;27177;22.262;114.192;2023-09-19T06:58:59;31.70;99.90
41435;DHT22;27177;22.262;114.192;2023-09-19T07:01:26;31.70;99.90
41435;DHT22;27177;22.262;114.192;2023-09-19T07:03:52;31.70;99.90
41435;DHT22;27177;22.262;114.192;2023-09-19T07:06:22;31.70;99.90
41435;DHT22;27177;22.262;114.192;2023-09-19T07:08:49;31.70;99.90
41435;DHT22;27177;22.262;114.192;2023-09-19T07:13:51;31.60;99.90
41435;DHT22;27177;22.262;114.192;2023-09-19T07:16:18;31.60;99.90
41435;DHT22;27177;22.262;114.192;2023-09-19T07:18:57;31.60;99.90
41435;DHT22;27177;22.262;114.192;2023-09-19T07:21:24;31.50;99.90
41435;DHT22;27177;22.262;114.192;2023-09-19T07:23:51;31.40;99.90
41435;DHT22;27177;22.262;114.192;2023-09-19T07:26:18;31.50;99.90
41435;DHT22;27177;22.262;114.192;2023-09-19T07:28:44;31.50;99.90
41435;DHT22;27177;22.262;114.192;2023-09-19T07:31:14;31.50;99.90
41435;DHT22;27177;22.262;114.192;2023-09-19T07:33:55;31.40;99.90
41435;DHT22;27177;22.262;114.192;2023-09-19T07:36:22;31.30;99.90
41435;DHT22;27177;22.262;114.192;2023-09-19T07:38:50;31.40;99.90
41435;DHT22;27177;22.262;114.192;2023-09-19T07:43:52;31.30;99.90
41435;DHT22;27177;22.262;114.192;2023-09-19T07:46:56;31.20;99.90
41435;DHT22;27177;22.262;114.192;2023-09-19T07:49:29;31.10;99.90
41435;DHT22;27177;22.262;114.192;2023-09-19T07:51:55;31.10;99.90
41435;DHT22;27177;22.262;114.192;2023-09-19T07:54:23;31.20;99.90
41435;DHT22;27177;22.262;114.192;2023-09-19T07:56:52;31.20;99.90
41435;DHT22;27177;22.262;114.192;2023-09-19T07:59:20;31.20;99.90
41435;DHT22;27177;22.262;114.192;2023-09-19T08:01:47;31.30;99.90
41435;DHT22;27177;22.262;114.192;2023-09-19T08:04:34;31.40;99.90
41435;DHT22;27177;22.262;114.192;2023-09-19T08:07:07;31.60;99.90
41435;DHT22;27177;22.262;114.192;2023-09-19T08:09:37;31.60;99.90
41435;DHT22;27177;22.262;114.192;2023-09-19T08:12:05;31.60;99.90
41435;DHT22;27177;22.262;114.192;2023-09-19T08:14:34;31.60;99.90
41435;DHT22;27177;22.262;114.192;2023-09-19T08:30:37;32.20;99.90
41435;DHT22;27177;22.262;114.192;2023-09-19T08:35:44;32.10;99.90
41435;DHT22;27177;22.262;114.192;2023-09-19T08:38:12;31.90;99.90
41435;DHT22;27177;22.262;114.192;2023-09-19T08:40:41;31.70;99.90
41435;DHT22;27177;22.262;114.192;2023-09-19T08:49:32;31.00;99.90
41435;DHT22;27177;22.262;114.192;2023-09-19T08:52:27;30.80;99.90
41435;DHT22;27177;22.262;114.192;2023-09-19T08:55:05;30.60;99.90
41435;DHT22;27177;22.262;114.192;2023-09-19T20:03:43;25.70;99.90
41435;DHT22;27177;22.262;114.192;2023-09-19T20:06:31;25.70;99.90
41435;DHT22;27177;22.262;114.192;2023-09-19T20:08:58;25.70;99.90
41435;DHT22;27177;22.262;114.192;2023-09-19T20:11:25;25.70;99.90
41435;DHT22;27177;22.262;114.192;2023-09-19T20:13:59;25.60;99.90
41435;DHT22;27177;22.262;114.192;2023-09-19T20:16:29;25.60;99.90
41435;DHT22;27177;22.262;114.192;2023-09-19T20:19:02;25.70;99.90
41435;DHT22;27177;22.262;114.192;2023-09-19T20:21:31;25.60;99.90
41435;DHT22;27177;22.262;114.192;2023-09-19T20:23:58;25.60;99.90
41435;DHT22;27177;22.262;114.192;2023-09-19T20:26:34;25.60;99.90
41435;DHT22;27177;22.262;114.192;2023-09-19T20:29:02;25.60;99.90
41435;DHT22;27177;22.262;114.192;2023-09-19T20:31:29;25.60;99.90
41435;DHT22;27177;22.262;114.192;2023-09-19T20:33:59;25.60;99.90
41435;DHT22;27177;22.262;114.192;2023-09-19T20:36:27;25.60;99.90
41435;DHT22;27177;22.262;114.192;2023-09-19T20:38:55;25.60;99.90
41435;DHT22;27177;22.262;114.192;2023-09-19T20:41:25;25.60;99.90
41435;DHT22;27177;22.262;114.192;2023-09-19T20:43:55;25.60;99.90
